createdAt,value
2018-03-16T00:00:33.995Z,65.10
2018-03-16T00:03:02.303Z,62.33
2018-03-16T00:05:30.611Z,61.83
2018-03-16T00:07:58.941Z,63.40
2018-03-16T00:10:27.248Z,59.83
2018-03-16T00:12:55.547Z,60.50
2018-03-16T00:15:23.884Z,63.73
2018-03-16T00:17:52.187Z,62.57
2018-03-16T00:20:20.503Z,65.90
2018-03-16T00:22:48.904Z,66.83
2018-03-16T00:25:17.981Z,68.70
2018-03-16T00:27:46.292Z,66.97
2018-03-16T00:30:15.380Z,70.77
2018-03-16T00:32:44.478Z,64.60
2018-03-16T00:35:13.617Z,66.50
2018-03-16T00:37:41.865Z,64.23
2018-03-16T00:40:10.939Z,61.90
2018-03-16T00:42:39.246Z,61.40
2018-03-16T00:45:08.352Z,66.07
2018-03-16T00:47:37.441Z,63.40
2018-03-16T00:50:06.524Z,63.90
2018-03-16T00:52:34.831Z,62.50
2018-03-16T00:55:03.330Z,68.10
2018-03-16T00:57:31.633Z,61.30
2018-03-16T01:00:00.039Z,60.63
2018-03-16T01:02:29.053Z,62.93
2018-03-16T01:04:57.352Z,63.67
2018-03-16T01:07:26.425Z,56.23
2018-03-16T01:09:54.751Z,65.40
2018-03-16T01:12:23.218Z,63.27
2018-03-16T01:14:51.616Z,62.33
2018-03-16T01:17:19.920Z,60.53
2018-03-16T01:19:48.230Z,59.57
2018-03-16T01:22:17.319Z,62.80
2018-03-16T01:24:46.448Z,60.67
2018-03-16T01:27:15.574Z,63.60
2018-03-16T01:29:43.892Z,64.80
2018-03-16T01:32:12.392Z,58.87
2018-03-16T01:34:41.208Z,60.73
2018-03-16T01:37:10.272Z,65.40
2018-03-16T01:39:38.586Z,63.00
2018-03-16T01:42:07.662Z,61.50
2018-03-16T01:44:37.519Z,59.57
2018-03-16T01:47:05.830Z,65.07
2018-03-16T01:49:34.162Z,62.10
2018-03-16T01:52:03.256Z,63.30
2018-03-16T01:54:32.345Z,63.30
2018-03-16T01:57:01.452Z,65.43
2018-03-16T01:59:30.512Z,60.50
2018-03-16T02:01:58.824Z,62.83
2018-03-16T02:04:27.890Z,60.80
2018-03-16T02:06:56.200Z,60.87
2018-03-16T02:09:25.336Z,60.77
2018-03-16T02:11:53.629Z,60.00
2018-03-16T02:14:21.942Z,61.60
2018-03-16T02:16:50.266Z,56.03
2018-03-16T02:19:18.575Z,60.60
2018-03-16T02:21:46.893Z,60.27
2018-03-16T02:24:15.970Z,59.67
2018-03-16T02:26:44.284Z,58.23
2018-03-16T02:29:13.352Z,58.37
2018-03-16T02:31:41.658Z,52.27
2018-03-16T02:34:11.546Z,54.17
2018-03-16T02:36:39.857Z,54.47
2018-03-16T02:39:08.941Z,58.30
2018-03-16T02:41:37.328Z,56.50
2018-03-16T02:44:06.404Z,54.00
2018-03-16T02:46:34.738Z,54.53
2018-03-16T02:49:03.047Z,56.40
2018-03-16T02:51:31.373Z,54.70
2018-03-16T02:53:59.686Z,53.70
2018-03-16T02:56:28.116Z,52.23
2018-03-16T02:58:56.430Z,53.23
2018-03-16T03:01:25.502Z,52.93
2018-03-16T03:03:53.807Z,52.73
2018-03-16T03:06:23.013Z,51.57
2018-03-16T03:08:52.173Z,53.07
2018-03-16T03:11:20.498Z,49.97
2018-03-16T03:13:49.572Z,51.03
2018-03-16T03:16:17.872Z,47.50
2018-03-16T03:18:46.965Z,50.40
2018-03-16T03:21:16.028Z,52.23
2018-03-16T03:23:44.324Z,51.00
2018-03-16T03:26:12.618Z,50.07
2018-03-16T03:28:41.698Z,48.37
2018-03-16T03:31:10.025Z,50.00
2018-03-16T03:33:38.319Z,48.00
2018-03-16T03:36:06.639Z,47.03
2018-03-16T03:38:34.968Z,49.83
2018-03-16T03:41:04.124Z,48.27
2018-03-16T03:43:32.429Z,46.40
2018-03-16T03:46:00.761Z,47.60
2018-03-16T03:48:29.068Z,49.10
2018-03-16T03:50:58.124Z,47.43
2018-03-16T03:53:26.403Z,45.50
2018-03-16T03:55:54.708Z,45.60
2018-03-16T03:58:23.027Z,46.27
2018-03-16T04:00:52.097Z,43.70
2018-03-16T04:03:21.827Z,47.10
2018-03-16T04:05:50.927Z,45.50
2018-03-16T04:08:19.964Z,43.93
2018-03-16T04:10:48.308Z,44.80
2018-03-16T04:13:17.383Z,46.67
2018-03-16T04:15:45.684Z,44.90
2018-03-16T04:18:14.756Z,44.17
2018-03-16T04:20:43.056Z,44.53
2018-03-16T04:23:12.144Z,43.53
2018-03-16T04:25:40.447Z,44.83
2018-03-16T04:28:09.510Z,45.53
2018-03-16T04:30:37.812Z,44.47
2018-03-16T04:33:06.897Z,43.00
2018-03-16T04:35:35.207Z,44.50
2018-03-16T04:38:04.277Z,45.83
2018-03-16T04:40:33.478Z,45.33
2018-03-16T04:43:01.829Z,44.33
2018-03-16T04:45:30.164Z,42.80
2018-03-16T04:47:59.223Z,45.37
2018-03-16T04:50:27.529Z,45.90
2018-03-16T04:52:56.610Z,45.50
2018-03-16T04:55:25.075Z,42.53
2018-03-16T04:57:53.613Z,42.77
2018-03-16T05:00:22.850Z,44.93
2018-03-16T05:02:51.153Z,43.20
2018-03-16T05:05:19.459Z,41.27
2018-03-16T05:07:47.768Z,41.93
2018-03-16T05:10:16.082Z,44.20
2018-03-16T05:12:44.405Z,42.13
2018-03-16T05:15:13.505Z,42.60
2018-03-16T05:17:41.818Z,43.73
2018-03-16T05:20:10.209Z,44.40
2018-03-16T05:22:38.499Z,43.77
2018-03-16T05:25:06.963Z,45.23
2018-03-16T05:27:35.421Z,43.63
2018-03-16T05:30:04.473Z,44.00
2018-03-16T05:32:32.777Z,47.00
2018-03-16T05:35:01.091Z,45.80
2018-03-16T05:37:30.156Z,45.73
2018-03-16T05:39:58.474Z,45.90
2018-03-16T05:42:26.788Z,47.57
2018-03-16T05:44:55.085Z,48.10
2018-03-16T05:47:23.383Z,48.90
2018-03-16T05:49:51.705Z,47.07
2018-03-16T05:52:20.005Z,49.50
2018-03-16T05:54:48.324Z,42.60
2018-03-16T05:57:16.638Z,45.87
2018-03-16T05:59:44.958Z,48.13
2018-03-16T06:02:13.294Z,44.90
2018-03-16T06:04:41.604Z,45.30
2018-03-16T06:07:09.928Z,44.40
2018-03-16T06:09:38.358Z,43.80
2018-03-16T06:12:06.662Z,42.60
2018-03-16T06:14:34.984Z,45.83
2018-03-16T06:17:04.074Z,42.33
2018-03-16T06:19:32.378Z,45.23
2018-03-16T06:22:00.768Z,45.27
2018-03-16T06:24:29.071Z,45.83
2018-03-16T06:26:57.476Z,44.97
2018-03-16T06:29:25.739Z,45.10
2018-03-16T06:31:54.103Z,44.90
2018-03-16T06:34:22.399Z,47.17
2018-03-16T06:36:50.737Z,45.43
2018-03-16T06:39:19.885Z,45.43
2018-03-16T06:41:48.156Z,46.70
2018-03-16T06:44:16.477Z,47.57
2018-03-16T06:46:44.789Z,45.70
2018-03-16T06:49:13.116Z,42.30
2018-03-16T06:51:41.581Z,46.03
2018-03-16T06:54:09.952Z,43.43
2018-03-16T06:56:38.250Z,45.50
2018-03-16T06:59:06.566Z,46.87
2018-03-16T07:01:36.375Z,43.73
2018-03-16T07:04:04.689Z,44.47
2018-03-16T07:06:32.995Z,46.67
2018-03-16T07:09:01.295Z,45.43
2018-03-16T07:11:29.598Z,43.00
2018-03-16T07:13:57.900Z,47.93
2018-03-16T07:16:26.961Z,47.50
2018-03-16T07:18:55.269Z,48.37
2018-03-16T07:21:24.405Z,45.97
2018-03-16T07:23:52.783Z,45.47
2018-03-16T07:26:21.108Z,47.90
2018-03-16T07:28:49.424Z,49.40
2018-03-16T07:31:18.515Z,45.20
2018-03-16T07:33:46.831Z,47.80
2018-03-16T07:36:15.119Z,48.53
2018-03-16T07:38:43.445Z,46.80
2018-03-16T07:41:12.572Z,49.10
2018-03-16T07:43:40.969Z,49.43
2018-03-16T07:46:15.024Z,46.53
2018-03-16T07:48:43.338Z,45.47
2018-03-16T07:51:12.413Z,46.80
2018-03-16T07:53:41.489Z,48.00
2018-03-16T07:56:09.831Z,48.37
2018-03-16T07:58:38.221Z,48.70
2018-03-16T08:01:06.560Z,45.77
2018-03-16T08:03:34.953Z,48.63
2018-03-16T08:06:04.031Z,49.70
2018-03-16T08:08:32.352Z,46.60
2018-03-16T08:11:00.658Z,48.13
2018-03-16T08:13:29.079Z,47.53
2018-03-16T08:15:58.148Z,48.53
2018-03-16T08:18:26.613Z,46.10
2018-03-16T08:20:54.919Z,48.47
2018-03-16T08:23:23.316Z,49.03
2018-03-16T08:25:52.387Z,49.27
2018-03-16T08:28:20.684Z,45.70
2018-03-16T08:30:48.977Z,48.67
2018-03-16T08:33:18.042Z,46.97
2018-03-16T08:35:46.335Z,48.87
2018-03-16T08:38:14.657Z,48.70
2018-03-16T08:40:43.634Z,46.20
2018-03-16T08:43:11.957Z,48.17
2018-03-16T08:45:40.257Z,48.80
2018-03-16T08:48:08.615Z,47.33
2018-03-16T08:50:37.007Z,47.33
2018-03-16T08:53:05.395Z,47.40
2018-03-16T08:55:33.691Z,44.67
2018-03-16T08:58:02.042Z,45.83
2018-03-16T09:00:30.367Z,46.20
2018-03-16T09:02:58.668Z,43.80
2018-03-16T09:05:28.483Z,44.97
2018-03-16T09:07:57.563Z,44.70
2018-03-16T09:10:25.905Z,41.17
2018-03-16T09:12:54.227Z,46.70
2018-03-16T09:15:22.549Z,44.90
2018-03-16T09:17:51.613Z,44.03
2018-03-16T09:20:19.947Z,42.90
2018-03-16T09:22:48.247Z,44.13
2018-03-16T09:25:17.227Z,44.73
2018-03-16T09:27:45.527Z,42.10
2018-03-16T09:30:14.563Z,38.40
2018-03-16T09:32:43.005Z,43.10
2018-03-16T09:35:11.307Z,43.80
2018-03-16T09:37:39.674Z,42.87
2018-03-16T09:40:07.989Z,40.30
2018-03-16T09:42:37.079Z,40.60
2018-03-16T09:45:05.396Z,43.00
2018-03-16T09:47:33.703Z,41.73
2018-03-16T09:50:02.038Z,43.50
2018-03-16T09:52:31.099Z,40.03
2018-03-16T09:55:17.281Z,40.90
2018-03-16T09:57:45.601Z,42.20
2018-03-16T10:00:14.665Z,41.63
2018-03-16T10:02:42.975Z,42.30
2018-03-16T10:05:11.283Z,41.07
2018-03-16T10:07:39.591Z,39.23
2018-03-16T10:10:07.921Z,40.13
2018-03-16T10:12:37.055Z,39.47
2018-03-16T10:15:05.379Z,43.00
2018-03-16T10:17:36.237Z,37.20
2018-03-16T10:20:05.361Z,36.43
2018-03-16T10:22:33.812Z,38.10
2018-03-16T10:25:04.059Z,34.20
2018-03-16T10:27:36.422Z,36.93
2018-03-16T10:30:05.065Z,36.70
2018-03-16T10:32:33.748Z,35.33
2018-03-16T10:35:03.101Z,36.07
2018-03-16T10:37:32.397Z,36.40
2018-03-16T10:40:02.519Z,35.87
2018-03-16T10:42:31.831Z,35.03
2018-03-16T10:45:00.921Z,36.80
2018-03-16T10:47:30.036Z,34.70
2018-03-16T10:49:59.147Z,33.00
2018-03-16T10:52:27.529Z,32.80
2018-03-16T10:54:55.895Z,34.33
2018-03-16T10:57:24.978Z,33.97
2018-03-16T10:59:53.286Z,32.20
2018-03-16T11:02:21.797Z,33.33
2018-03-16T11:04:55.701Z,31.87
2018-03-16T11:10:24.831Z,32.00
2018-03-16T11:12:55.182Z,30.47
2018-03-16T11:15:24.511Z,31.80
2018-03-16T11:17:52.833Z,28.37
2018-03-16T11:20:21.141Z,29.13
2018-03-16T11:22:49.473Z,29.33
2018-03-16T11:25:17.827Z,27.97
2018-03-16T11:27:46.931Z,29.20
2018-03-16T11:30:15.288Z,28.73
2018-03-16T11:32:43.609Z,28.07
2018-03-16T11:35:11.925Z,26.17
2018-03-16T11:37:40.276Z,25.67
2018-03-16T11:40:08.583Z,25.40
2018-03-16T11:42:36.910Z,24.43
2018-03-16T11:45:05.240Z,24.60
2018-03-16T11:47:33.544Z,24.83
2018-03-16T11:50:01.868Z,25.53
2018-03-16T11:52:30.174Z,25.80
2018-03-16T11:54:58.483Z,24.00
2018-03-16T11:57:26.791Z,26.40
2018-03-16T11:59:55.866Z,23.17
2018-03-16T12:02:24.211Z,27.00
2018-03-16T12:04:52.707Z,25.50
2018-03-16T12:07:21.067Z,25.17
2018-03-16T12:09:49.367Z,24.50
2018-03-16T12:12:17.692Z,26.00
2018-03-16T12:14:46.848Z,23.87
2018-03-16T12:17:15.247Z,24.77
2018-03-16T12:19:43.565Z,25.97
2018-03-16T12:22:15.278Z,25.50
2018-03-16T12:24:45.165Z,24.67
2018-03-16T12:27:13.956Z,24.20
2018-03-16T12:29:43.108Z,25.37
2018-03-16T12:32:12.223Z,25.57
2018-03-16T12:34:41.335Z,25.27
2018-03-16T12:37:11.411Z,25.27
2018-03-16T12:39:40.826Z,24.53
2018-03-16T12:42:09.630Z,23.23
2018-03-16T12:44:38.023Z,25.20
2018-03-16T12:47:07.141Z,23.63
2018-03-16T12:49:35.470Z,24.07
2018-03-16T12:52:03.768Z,24.83
2018-03-16T12:54:33.456Z,25.20
2018-03-16T12:57:03.005Z,23.67
2018-03-16T12:59:32.094Z,23.93
2018-03-16T13:02:01.188Z,24.53
2018-03-16T13:04:30.276Z,23.87
2018-03-16T13:06:58.610Z,25.00
2018-03-16T13:09:26.926Z,23.20
2018-03-16T13:11:55.242Z,25.77
2018-03-16T13:14:24.304Z,23.80
2018-03-16T13:16:52.618Z,24.40
2018-03-16T13:19:22.449Z,23.73
2018-03-16T13:21:50.767Z,23.33
2018-03-16T13:24:19.131Z,23.87
2018-03-16T13:26:47.457Z,23.00
2018-03-16T13:29:15.765Z,26.10
2018-03-16T13:31:44.835Z,27.07
2018-03-16T13:34:13.169Z,23.77
2018-03-16T13:36:41.487Z,24.70
2018-03-16T13:39:09.815Z,24.10
2018-03-16T13:41:38.142Z,25.60
2018-03-16T13:44:06.445Z,25.10
2018-03-16T13:46:34.780Z,25.10
2018-03-16T13:49:03.090Z,23.60
2018-03-16T13:51:31.425Z,24.10
2018-03-16T13:53:59.844Z,24.20
2018-03-16T13:56:28.153Z,25.43
2018-03-16T13:58:56.476Z,24.90
2018-03-16T14:01:24.799Z,24.77
2018-03-16T14:03:53.137Z,25.87
2018-03-16T14:06:21.455Z,24.23
2018-03-16T14:08:49.773Z,22.00
2018-03-16T14:11:18.863Z,22.73
2018-03-16T14:13:48.189Z,22.60
2018-03-16T14:16:16.524Z,22.80
2018-03-16T14:18:45.599Z,23.63
2018-03-16T14:21:13.908Z,24.00
2018-03-16T14:23:42.242Z,23.00
2018-03-16T14:26:10.555Z,22.70
2018-03-16T14:28:38.876Z,22.80
2018-03-16T14:31:07.971Z,22.90
2018-03-16T14:33:37.056Z,21.80
2018-03-16T14:36:05.367Z,21.53
2018-03-16T14:38:33.691Z,20.80
2018-03-16T14:41:02.012Z,23.00
2018-03-16T14:43:31.764Z,21.03
2018-03-16T14:46:00.080Z,19.70
2018-03-16T14:48:28.468Z,19.53
2018-03-16T14:50:57.652Z,18.40
2018-03-16T14:53:25.966Z,20.20
2018-03-16T14:55:55.028Z,19.23
2018-03-16T14:58:23.374Z,21.30
2018-03-16T15:00:51.671Z,19.57
2018-03-16T15:03:19.975Z,18.80
2018-03-16T15:05:48.344Z,17.30
2018-03-16T15:08:16.717Z,18.70
2018-03-16T15:10:46.520Z,17.63
2018-03-16T15:13:14.896Z,19.47
2018-03-16T15:15:43.288Z,18.53
2018-03-16T15:18:11.619Z,18.13
2018-03-16T15:20:39.918Z,18.10
2018-03-16T15:23:08.995Z,16.60
2018-03-16T15:25:38.076Z,19.03
2018-03-16T15:28:06.386Z,18.90
2018-03-16T15:30:35.463Z,19.03
2018-03-16T15:33:04.929Z,18.57
2018-03-16T15:35:33.247Z,18.43
2018-03-16T15:38:02.738Z,19.80
2018-03-16T15:40:31.060Z,19.53
2018-03-16T15:43:00.160Z,18.97
2018-03-16T15:45:29.236Z,19.60
2018-03-16T15:47:57.562Z,20.37
2018-03-16T15:50:25.886Z,18.60
2018-03-16T15:52:54.220Z,18.80
2018-03-16T15:55:22.536Z,21.80
2018-03-16T15:57:50.861Z,20.33
2018-03-16T16:00:19.946Z,18.53
2018-03-16T16:02:49.163Z,19.80
2018-03-16T16:05:18.350Z,18.20
2018-03-16T16:07:47.446Z,19.80
2018-03-16T16:10:16.524Z,19.70
2018-03-16T16:12:44.910Z,20.17
2018-03-16T16:15:13.249Z,19.50
2018-03-16T16:17:41.590Z,19.57
2018-03-16T16:20:10.944Z,22.23
2018-03-16T16:22:39.281Z,21.37
2018-03-16T16:25:08.480Z,20.60
2018-03-16T16:27:37.574Z,20.47
2018-03-16T16:30:05.936Z,22.07
2018-03-16T16:32:34.259Z,19.60
2018-03-16T16:35:02.598Z,22.03
2018-03-16T16:37:30.919Z,18.40
2018-03-16T16:39:59.253Z,20.13
2018-03-16T16:42:27.737Z,20.10
2018-03-16T16:44:56.059Z,19.97
2018-03-16T16:47:25.166Z,21.10
2018-03-16T16:49:52.798Z,19.90
2018-03-16T16:52:21.118Z,21.73
2018-03-16T16:54:49.451Z,24.50
2018-03-16T16:57:17.774Z,22.60
2018-03-16T16:59:46.143Z,20.67
2018-03-16T17:02:14.488Z,19.60
2018-03-16T17:04:44.821Z,22.90
2018-03-16T17:07:13.154Z,22.43
2018-03-16T17:09:41.580Z,22.90
2018-03-16T17:12:09.919Z,23.07
2018-03-16T17:14:38.262Z,24.63
2018-03-16T17:17:07.364Z,24.57
2018-03-16T17:19:36.628Z,23.27
2018-03-16T17:22:04.993Z,22.20
2018-03-16T17:24:33.314Z,21.90
2018-03-16T17:27:01.668Z,22.10
2018-03-16T17:29:30.037Z,22.57
2018-03-16T17:31:58.365Z,31.50
2018-03-16T17:34:27.448Z,26.60
2018-03-16T17:36:55.760Z,23.90
2018-03-16T17:39:24.884Z,23.53
2018-03-16T17:41:53.433Z,18.67
2018-03-16T17:44:22.589Z,20.83
2018-03-16T17:46:50.922Z,23.23
2018-03-16T17:49:20.021Z,22.80
2018-03-16T17:51:49.132Z,21.80
2018-03-16T17:54:17.483Z,19.83
2018-03-16T17:56:45.846Z,18.77
2018-03-16T17:59:14.360Z,21.30
2018-03-16T18:01:42.708Z,22.80
2018-03-16T18:04:11.128Z,19.33
2018-03-16T18:06:40.216Z,21.50
2018-03-16T18:09:09.317Z,20.17
2018-03-16T18:11:38.435Z,23.27
2018-03-16T18:14:06.780Z,20.70
2018-03-16T18:16:35.145Z,21.80
2018-03-16T18:19:03.496Z,22.03
2018-03-16T18:21:31.897Z,22.35
2018-03-16T18:24:00.273Z,25.90
2018-03-16T18:26:28.684Z,21.87
2018-03-16T18:28:57.855Z,22.07
2018-03-16T18:31:26.200Z,21.23
2018-03-16T18:33:55.301Z,22.53
2018-03-16T18:36:24.388Z,22.20
2018-03-16T18:38:53.532Z,22.43
2018-03-16T18:41:21.836Z,23.70
2018-03-16T18:43:50.338Z,22.90
2018-03-16T18:46:19.628Z,20.50
2018-03-16T18:48:47.969Z,19.70
2018-03-16T18:51:16.330Z,20.07
2018-03-16T18:53:45.512Z,20.10
2018-03-16T18:56:16.085Z,19.00
2018-03-16T18:58:46.008Z,20.27
2018-03-16T19:01:17.899Z,22.10
2018-03-16T19:03:47.151Z,17.70
2018-03-16T19:06:15.520Z,15.87
2018-03-16T19:08:44.621Z,18.57
2018-03-16T19:11:13.726Z,17.60
2018-03-16T19:13:42.222Z,16.40
2018-03-16T19:16:10.695Z,18.27
2018-03-16T19:18:39.225Z,16.60
2018-03-16T19:21:07.556Z,18.10
2018-03-16T19:23:36.754Z,15.27
2018-03-16T19:26:05.127Z,15.87
2018-03-16T19:28:34.263Z,21.05
2018-03-16T19:31:02.612Z,18.30
2018-03-16T19:33:31.733Z,18.90
2018-03-16T19:36:00.126Z,17.27
2018-03-16T19:38:28.503Z,13.80
2018-03-16T19:40:56.854Z,17.17
2018-03-16T19:43:25.997Z,16.53
2018-03-16T19:45:54.946Z,15.60
2018-03-16T19:48:24.982Z,17.80
2018-03-16T19:50:53.341Z,17.10
2018-03-16T19:53:22.838Z,17.33
2018-03-16T19:55:51.186Z,16.40
2018-03-16T19:58:19.916Z,16.27
2018-03-16T20:00:48.291Z,18.60
2018-03-16T20:03:16.752Z,16.17
2018-03-16T20:05:46.013Z,16.50
2018-03-16T20:08:14.687Z,17.20
2018-03-16T20:10:43.800Z,15.70
2018-03-16T20:13:12.358Z,14.10
2018-03-16T20:15:41.492Z,14.13
2018-03-16T20:18:09.848Z,16.93
2018-03-16T20:20:39.752Z,14.40
2018-03-16T20:23:08.860Z,14.87
2018-03-16T20:25:38.001Z,15.27
2018-03-16T20:28:06.363Z,11.90
2018-03-16T20:30:34.733Z,13.30
2018-03-16T20:33:03.840Z,14.43
2018-03-16T20:35:32.241Z,12.93
2018-03-16T20:38:00.581Z,12.27
2018-03-16T20:40:29.702Z,13.67
2018-03-16T20:42:58.600Z,13.47
2018-03-16T20:45:26.948Z,13.10
2018-03-16T20:47:56.136Z,12.50
2018-03-16T20:50:24.517Z,12.98
2018-03-16T20:52:52.866Z,13.23
2018-03-16T20:55:21.397Z,13.10
2018-03-16T20:57:49.732Z,13.30
2018-03-16T21:00:18.110Z,12.30
2018-03-16T21:02:46.521Z,14.07
2018-03-16T21:05:15.637Z,11.90
2018-03-16T21:07:44.761Z,10.40
2018-03-16T21:10:13.188Z,11.17
2018-03-16T21:12:41.970Z,12.30
2018-03-16T21:15:11.142Z,14.57
2018-03-16T21:17:39.566Z,10.80
2018-03-16T21:20:08.067Z,11.20
2018-03-16T21:22:37.224Z,10.67
2018-03-16T21:25:05.589Z,10.57
2018-03-16T21:27:33.962Z,10.53
2018-03-16T21:30:03.082Z,9.97
2018-03-16T21:32:31.532Z,10.03
2018-03-16T21:35:00.996Z,8.50
2018-03-16T21:37:29.361Z,9.27
2018-03-16T21:39:57.718Z,9.67
2018-03-16T21:42:26.180Z,9.63
2018-03-16T21:44:55.411Z,10.50
2018-03-16T21:47:23.888Z,9.10
2018-03-16T21:49:52.226Z,11.27
2018-03-16T21:52:20.552Z,8.23
2018-03-16T21:54:48.914Z,10.30
2018-03-16T21:57:18.022Z,9.30
2018-03-16T21:59:46.367Z,9.47
2018-03-16T22:02:14.696Z,10.50
2018-03-16T22:04:43.071Z,10.47
2018-03-16T22:07:14.936Z,9.57
2018-03-16T22:09:43.542Z,9.53
2018-03-16T22:12:11.866Z,10.40
2018-03-16T22:14:40.206Z,8.20
2018-03-16T22:17:08.524Z,8.90
2018-03-16T22:19:36.920Z,9.47
2018-03-16T22:22:06.170Z,7.40
2018-03-16T22:24:34.570Z,8.73
2018-03-16T22:27:02.908Z,9.43
2018-03-16T22:29:32.011Z,10.07
2018-03-16T22:32:00.347Z,8.90
2018-03-16T22:34:28.664Z,8.93
2018-03-16T22:36:57.833Z,9.17
2018-03-16T22:39:26.172Z,9.70
2018-03-16T22:41:54.568Z,10.00
2018-03-16T22:44:22.877Z,9.17
2018-03-16T22:46:51.397Z,8.33
2018-03-16T22:49:19.705Z,9.20
2018-03-16T22:51:48.021Z,9.83
2018-03-16T22:54:16.315Z,7.77
2018-03-16T22:56:44.677Z,8.03
2018-03-16T22:59:13.784Z,8.03
2018-03-16T23:01:42.177Z,9.20
2018-03-16T23:04:11.244Z,8.53
2018-03-16T23:06:39.550Z,9.03
2018-03-16T23:09:07.864Z,9.10
2018-03-16T23:11:36.188Z,9.27
2018-03-16T23:14:04.493Z,8.30
2018-03-16T23:16:33.575Z,8.90
2018-03-16T23:19:01.883Z,8.97
2018-03-16T23:21:30.981Z,8.90
2018-03-16T23:24:00.145Z,8.50
2018-03-16T23:26:28.492Z,8.57
2018-03-16T23:28:56.795Z,8.40
2018-03-16T23:31:25.116Z,9.00
2018-03-16T23:33:55.501Z,8.13
2018-03-16T23:36:23.815Z,7.53
2018-03-16T23:38:54.407Z,8.10
2018-03-16T23:41:22.895Z,8.07
2018-03-16T23:43:51.249Z,6.83
2018-03-16T23:46:19.682Z,8.07
2018-03-16T23:48:48.040Z,8.30
2018-03-16T23:51:16.853Z,7.13
2018-03-16T23:53:45.250Z,7.10
2018-03-16T23:56:13.635Z,7.50
2018-03-16T23:58:42.187Z,8.10
